Time;durP1;ratioP1;P1;durP2;ratioP2;P2;SDS_P1;SDS_P2;PMS_P1;PMS_P2;Temp;Humidity;BMP_temperature;BMP_pressure;BME280_temperature;BME280_humidity;BME280_pressure;Samples;Min_cycle;Max_cycle;Signal;HPM_P1;HPM_P2
2022/11/26 00:00:38;;;;;;;2.50;2.40;;;17.40;73.20;;;;;;5126758;27;43496;-72
2022/11/26 00:03:06;;;;;;;2.40;2.30;;;17.50;73.00;;;;;;5130051;27;43923;-70
2022/11/26 00:05:35;;;;;;;2.30;2.30;;;17.60;72.60;;;;;;5127380;27;43372;-70
2022/11/26 00:08:03;;;;;;;2.37;2.27;;;17.60;72.40;;;;;;5128259;27;43408;-71
2022/11/26 00:10:34;;;;;;;2.40;2.30;;;17.60;72.40;;;;;;5129531;27;44021;-71
2022/11/26 00:13:02;;;;;;;2.47;2.37;;;17.50;72.60;;;;;;5131287;27;43745;-71
2022/11/26 00:15:31;;;;;;;2.30;2.20;;;17.60;72.80;;;;;;5129414;27;44947;-70
2022/11/26 00:17:59;;;;;;;2.40;2.20;;;17.50;72.60;;;;;;5126531;27;43499;-70
2022/11/26 00:20:29;;;;;;;2.30;2.20;;;17.50;72.60;;;;;;5114648;27;43904;-71
2022/11/26 00:23:02;;;;;;;2.43;2.33;;;17.50;72.70;;;;;;5128940;27;43830;-75
2022/11/26 00:25:33;;;;;;;2.50;2.40;;;17.40;72.70;;;;;;5126359;27;45203;-72
2022/11/26 00:28:01;;;;;;;2.60;2.50;;;17.40;73.00;;;;;;5130240;27;43516;-71
2022/11/26 00:30:29;;;;;;;2.53;2.43;;;17.40;73.20;;;;;;5134102;27;43429;-69
2022/11/26 00:32:58;;;;;;;2.50;2.40;;;17.40;73.00;;;;;;5114952;27;44008;-70
2022/11/26 00:35:26;;;;;;;2.20;2.10;;;17.40;72.90;;;;;;5130495;27;43464;-72
2022/11/26 00:37:55;;;;;;;2.67;2.57;;;17.40;72.90;;;;;;5131815;27;43397;-71
2022/11/26 00:40:25;;;;;;;2.63;2.53;;;17.40;73.00;;;;;;5132004;27;43356;-71
2022/11/26 00:42:54;;;;;;;2.50;2.40;;;17.40;73.20;;;;;;5131197;27;43914;-70
2022/11/26 00:45:29;;;;;;;2.40;2.30;;;17.30;73.40;;;;;;5121007;27;44167;-71
2022/11/26 00:47:57;;;;;;;2.53;2.43;;;17.40;73.30;;;;;;5125355;27;43457;-71
2022/11/26 00:50:26;;;;;;;2.80;2.70;;;17.50;73.00;;;;;;5131304;27;43422;-70
2022/11/26 00:52:55;;;;;;;2.47;2.37;;;17.50;72.60;;;;;;5127735;27;45830;-72
2022/11/26 00:55:27;;;;;;;2.40;2.30;;;17.50;72.50;;;;;;5134070;27;43381;-70
2022/11/26 00:57:55;;;;;;;2.80;2.70;;;17.50;72.60;;;;;;5135826;27;43483;-71
2022/11/26 01:00:24;;;;;;;2.80;2.70;;;17.50;73.00;;;;;;5134855;27;43588;-71
2022/11/26 01:02:52;;;;;;;2.40;2.30;;;17.50;72.90;;;;;;5119916;27;44028;-70
2022/11/26 01:05:20;;;;;;;2.30;2.20;;;17.50;72.90;;;;;;5131961;27;43524;-71
2022/11/26 01:07:48;;;;;;;2.20;2.20;;;17.50;72.80;;;;;;5125775;27;43504;-71
2022/11/26 01:10:18;;;;;;;2.47;2.37;;;17.40;72.80;;;;;;5119615;27;43471;-70
2022/11/26 01:12:47;;;;;;;2.47;2.30;;;17.40;72.90;;;;;;5123176;27;43602;-71
2022/11/26 01:15:15;;;;;;;2.80;2.60;;;17.40;73.30;;;;;;5128797;27;43362;-71
2022/11/26 01:17:43;;;;;;;2.30;2.20;;;17.40;73.30;;;;;;5133370;27;43366;-72
2022/11/26 01:20:24;;;;;;;2.37;2.27;;;17.50;73.20;;;;;;5131191;27;43553;-72
2022/11/26 01:22:52;;;;;;;2.00;2.00;;;17.60;72.70;;;;;;5132293;27;44457;-71
2022/11/26 01:25:20;;;;;;;2.10;2.10;;;17.60;72.50;;;;;;5128692;27;44194;-72
2022/11/26 01:27:50;;;;;;;2.50;2.40;;;17.60;72.40;;;;;;5129886;27;43394;-71
2022/11/26 01:30:19;;;;;;;2.53;2.43;;;17.50;72.50;;;;;;5127407;27;44100;-70
2022/11/26 01:32:48;;;;;;;2.40;2.30;;;17.50;72.70;;;;;;5137410;27;45342;-72
2022/11/26 01:35:16;;;;;;;2.13;2.13;;;17.50;72.60;;;;;;5133388;27;43388;-72
2022/11/26 01:37:44;;;;;;;2.40;2.30;;;17.50;72.60;;;;;;5129777;27;44018;-72
2022/11/26 01:40:28;;;;;;;2.47;2.37;;;17.50;72.60;;;;;;5136962;27;43432;-71
2022/11/26 01:42:59;;;;;;;2.33;2.23;;;17.40;72.70;;;;;;5123066;27;44474;-70
2022/11/26 01:45:27;;;;;;;2.50;2.40;;;17.40;72.90;;;;;;5132030;27;43460;-71
2022/11/26 01:47:55;;;;;;;2.50;2.40;;;17.40;73.10;;;;;;5125721;27;43405;-70
2022/11/26 01:50:57;;;;;;;2.40;2.30;;;17.40;73.00;;;;;;5124727;27;43488;-72
2022/11/26 01:53:39;;;;;;;2.50;2.40;;;17.40;73.00;;;;;;5070387;27;43596;-71
2022/11/26 01:56:19;;;;;;;2.30;2.20;;;17.40;72.90;;;;;;5128126;27;43938;-72
2022/11/26 01:58:50;;;;;;;2.00;2.00;;;17.40;73.00;;;;;;5123955;27;43992;-70
2022/11/26 02:01:18;;;;;;;2.40;2.30;;;17.30;73.20;;;;;;5129389;27;43901;-71
2022/11/26 02:03:52;;;;;;;2.37;2.27;;;17.40;73.30;;;;;;5122434;27;43669;-71
2022/11/26 02:06:22;;;;;;;2.40;2.30;;;17.50;73.10;;;;;;5125033;27;43412;-71
2022/11/26 02:08:50;;;;;;;2.70;2.60;;;17.60;72.60;;;;;;5133274;27;43413;-72
2022/11/26 02:11:19;;;;;;;2.17;2.07;;;17.60;72.40;;;;;;5122797;27;43491;-70
2022/11/26 02:13:50;;;;;;;2.20;2.10;;;17.60;72.20;;;;;;5111465;27;43947;-71
2022/11/26 02:16:23;;;;;;;2.30;2.20;;;17.60;72.50;;;;;;5105966;27;44920;-71
2022/11/26 02:19:00;;;;;;;2.43;2.33;;;17.60;72.60;;;;;;5113975;27;43375;-71
2022/11/26 02:21:28;;;;;;;2.30;2.20;;;17.50;72.50;;;;;;5120267;27;43616;-72
2022/11/26 02:24:30;;;;;;;2.23;2.13;;;17.50;72.50;;;;;;5113553;27;44309;-71
2022/11/26 02:27:13;;;;;;;2.33;2.23;;;17.50;72.50;;;;;;5111868;27;43881;-73
2022/11/26 02:30:01;;;;;;;2.33;2.23;;;17.40;72.60;;;;;;5108483;27;43564;-73
2022/11/26 02:32:31;;;;;;;2.40;2.30;;;17.40;73.10;;;;;;5125224;27;43703;-72
2022/11/26 02:35:01;;;;;;;2.20;2.20;;;17.40;73.00;;;;;;5118242;27;44085;-70
2022/11/26 02:37:31;;;;;;;2.40;2.30;;;17.40;72.90;;;;;;5120202;27;44775;-71
2022/11/26 02:39:59;;;;;;;2.30;2.20;;;17.40;72.90;;;;;;5104831;27;43473;-72
2022/11/26 02:42:27;;;;;;;2.80;2.70;;;17.40;73.00;;;;;;5118941;27;43432;-74
2022/11/26 02:44:56;;;;;;;3.27;2.40;;;17.30;72.90;;;;;;5102197;27;45656;-72
2022/11/26 02:47:26;;;;;;;2.47;2.37;;;17.30;73.30;;;;;;5108731;27;43440;-70
2022/11/26 02:49:54;;;;;;;2.40;2.40;;;17.40;73.40;;;;;;5111850;27;43788;-72
2022/11/26 02:52:22;;;;;;;2.50;2.40;;;17.50;73.10;;;;;;5101898;27;43881;-70
2022/11/26 02:54:50;;;;;;;2.33;2.23;;;17.50;72.60;;;;;;5108750;27;43603;-69
2022/11/26 02:57:19;;;;;;;2.10;2.00;;;17.60;72.50;;;;;;5104474;27;44145;-71
2022/11/26 02:59:46;;;;;;;2.40;2.30;;;17.50;72.30;;;;;;5115997;27;43491;-71
2022/11/26 03:02:17;;;;;;;2.60;2.50;;;17.50;72.70;;;;;;5110037;27;43454;-71
2022/11/26 03:04:48;;;;;;;2.27;2.17;;;17.50;72.70;;;;;;5114812;27;43859;-72
2022/11/26 03:07:17;;;;;;;2.43;2.33;;;17.50;72.60;;;;;;5118684;27;43446;-70
2022/11/26 03:09:50;;;;;;;2.20;2.10;;;17.50;73.30;;;;;;5114178;27;43580;-71
2022/11/26 03:12:18;;;;;;;2.40;2.30;;;17.50;72.70;;;;;;5110525;27;43476;-70
2022/11/26 03:14:46;;;;;;;2.60;2.40;;;17.40;72.70;;;;;;5106651;27;45068;-70
2022/11/26 03:17:14;;;;;;;2.33;2.23;;;17.40;73.00;;;;;;5121434;27;43421;-70
2022/11/26 03:19:41;;;;;;;2.23;2.13;;;17.40;73.20;;;;;;5109398;27;43422;-70
2022/11/26 03:22:11;;;;;;;1.90;1.90;;;17.40;73.00;;;;;;5103834;27;43541;-71
2022/11/26 03:24:39;;;;;;;2.00;1.90;;;17.40;73.00;;;;;;5119126;27;43902;-71
2022/11/26 03:27:07;;;;;;;2.23;2.17;;;17.40;73.00;;;;;;5113347;27;43460;-72
2022/11/26 03:29:35;;;;;;;2.10;2.10;;;17.30;73.00;;;;;;5118748;27;44055;-71
2022/11/26 03:32:03;;;;;;;2.40;2.30;;;17.30;73.20;;;;;;5104968;27;43533;-69
2022/11/26 03:34:31;;;;;;;2.27;2.17;;;17.30;73.30;;;;;;5119959;27;43700;-70
2022/11/26 03:36:59;;;;;;;2.00;2.00;;;17.30;73.10;;;;;;5109083;27;45386;-71
2022/11/26 03:39:28;;;;;;;2.10;2.10;;;17.30;73.00;;;;;;5110782;27;43503;-72
2022/11/26 03:41:58;;;;;;;2.00;2.00;;;17.30;73.00;;;;;;5111766;27;43539;-72
2022/11/26 03:44:26;;;;;;;1.80;1.80;;;17.30;73.00;;;;;;5100845;27;46034;-71
2022/11/26 03:46:54;;;;;;;2.50;2.40;;;17.30;73.20;;;;;;5109033;27;43538;-71
2022/11/26 03:49:22;;;;;;;2.30;2.30;;;17.30;73.40;;;;;;5109377;27;43470;-70
2022/11/26 03:51:50;;;;;;;2.40;2.30;;;17.40;73.30;;;;;;5112451;27;43591;-70
2022/11/26 03:54:18;;;;;;;2.30;2.20;;;17.50;72.80;;;;;;5112881;27;43963;-70
2022/11/26 03:56:47;;;;;;;2.20;2.20;;;17.60;72.50;;;;;;5108961;27;44723;-70
2022/11/26 03:59:15;;;;;;;2.33;2.23;;;17.60;72.20;;;;;;5118845;27;43451;-70
2022/11/26 04:01:43;;;;;;;2.10;2.10;;;17.60;72.20;;;;;;5116562;27;43945;-70
2022/11/26 04:04:11;;;;;;;2.33;2.23;;;17.60;72.50;;;;;;5111016;27;43881;-70
2022/11/26 04:06:39;;;;;;;2.10;2.00;;;17.60;72.50;;;;;;5111214;27;43362;-70
2022/11/26 04:09:07;;;;;;;1.80;1.80;;;17.50;72.30;;;;;;5119442;27;43436;-70
2022/11/26 04:11:34;;;;;;;2.07;2.07;;;17.50;72.40;;;;;;5106543;27;43520;-72
2022/11/26 04:14:04;;;;;;;2.00;1.90;;;17.50;72.50;;;;;;5109687;27;43919;-70
2022/11/26 04:16:32;;;;;;;2.23;2.13;;;17.40;72.60;;;;;;5121132;27;43887;-71
2022/11/26 04:19:00;;;;;;;2.30;2.20;;;17.40;73.10;;;;;;5105382;27;43565;-72
2022/11/26 04:21:28;;;;;;;1.77;1.77;;;17.40;73.10;;;;;;5109650;27;43618;-74
2022/11/26 04:23:55;;;;;;;1.70;1.70;;;17.40;73.00;;;;;;5120037;27;43583;-71
2022/11/26 04:26:23;;;;;;;2.03;2.03;;;17.40;73.00;;;;;;5101203;27;44392;-71
2022/11/26 04:28:51;;;;;;;2.10;2.10;;;17.30;72.90;;;;;;5113452;27;43496;-70
2022/11/26 04:31:21;;;;;;;2.63;2.43;;;17.30;73.00;;;;;;5105331;27;43971;-71
2022/11/26 04:33:49;;;;;;;2.70;2.60;;;17.30;73.40;;;;;;5106449;27;43623;-71
2022/11/26 04:36:16;;;;;;;2.70;2.50;;;17.30;73.50;;;;;;5116002;27;44715;-70
2022/11/26 04:38:44;;;;;;;3.27;2.83;;;17.40;73.20;;;;;;5109065;27;43540;-70
2022/11/26 04:41:12;;;;;;;2.90;2.70;;;17.50;72.90;;;;;;5117610;27;43713;-72
2022/11/26 04:43:40;;;;;;;3.20;3.00;;;17.50;72.60;;;;;;5100563;27;43750;-70
2022/11/26 04:46:08;;;;;;;3.63;3.13;;;17.50;72.50;;;;;;5113460;27;44708;-72
2022/11/26 04:48:38;;;;;;;5.63;3.40;;;17.50;72.70;;;;;;5111215;27;43477;-72
2022/11/26 04:51:06;;;;;;;5.53;3.50;;;17.50;73.00;;;;;;5109294;27;43492;-71
2022/11/26 04:53:34;;;;;;;4.83;3.60;;;17.40;72.80;;;;;;5104685;27;46174;-72
2022/11/26 04:56:01;;;;;;;4.03;2.97;;;17.40;72.70;;;;;;5111061;27;43476;-73
2022/11/26 04:58:29;;;;;;;5.00;3.90;;;17.40;72.80;;;;;;5116161;27;43520;-71
2022/11/26 05:00:57;;;;;;;5.70;3.93;;;17.30;72.80;;;;;;5112609;27;43455;-71
2022/11/26 05:03:25;;;;;;;8.83;4.37;;;17.30;72.90;;;;;;5117611;27;43827;-71
2022/11/26 05:05:55;;;;;;;8.40;4.60;;;17.30;73.40;;;;;;5113367;27;43453;-72
2022/11/26 05:08:22;;;;;;;5.63;4.10;;;17.30;73.10;;;;;;5107603;27;43524;-71
2022/11/26 05:10:53;;;;;;;5.47;3.67;;;17.30;73.00;;;;;;5118091;27;43543;-71
2022/11/26 05:13:21;;;;;;;7.03;4.00;;;17.30;72.90;;;;;;5110319;27;43886;-70
2022/11/26 05:15:49;;;;;;;6.93;4.53;;;17.30;73.00;;;;;;5109206;27;45284;-72
2022/11/26 05:18:17;;;;;;;9.00;4.87;;;17.30;73.10;;;;;;5117765;27;43465;-70
2022/11/26 05:20:45;;;;;;;8.90;5.10;;;17.30;73.50;;;;;;5110828;27;43865;-71
2022/11/26 05:23:14;;;;;;;8.50;4.77;;;17.40;73.50;;;;;;5117577;27;43857;-71
2022/11/26 05:25:42;;;;;;;11.07;5.37;;;17.50;73.20;;;;;;5103701;27;43528;-69
2022/11/26 05:28:10;;;;;;;10.90;5.60;;;17.60;72.70;;;;;;5126229;27;43432;-70
2022/11/26 05:30:38;;;;;;;12.27;5.60;;;17.60;72.30;;;;;;5103529;27;44735;-71
2022/11/26 05:33:06;;;;;;;9.00;5.53;;;17.60;72.10;;;;;;5115902;27;43831;-71
2022/11/26 05:35:34;;;;;;;11.43;6.07;;;17.60;72.50;;;;;;5124719;27;43433;-70
2022/11/26 05:38:02;;;;;;;10.93;6.10;;;17.60;72.50;;;;;;5110020;27;43444;-71
2022/11/26 05:40:31;;;;;;;11.10;6.40;;;17.60;72.40;;;;;;5112120;27;43468;-72
2022/11/26 05:43:00;;;;;;;8.63;5.27;;;17.50;72.20;;;;;;5123378;27;43850;-70
2022/11/26 05:45:27;;;;;;;8.13;4.87;;;17.50;72.40;;;;;;5113356;27;43870;-71
2022/11/26 05:47:56;;;;;;;10.00;6.00;;;17.50;72.60;;;;;;5108206;27;43429;-71
2022/11/26 05:50:23;;;;;;;12.47;6.20;;;17.40;72.70;;;;;;5120348;27;43600;-70
2022/11/26 05:52:53;;;;;;;11.17;6.37;;;17.40;73.10;;;;;;5119977;27;43693;-71
2022/11/26 05:55:21;;;;;;;11.70;6.37;;;17.40;73.00;;;;;;5104368;27;43953;-74
2022/11/26 05:57:50;;;;;;;10.27;6.00;;;17.40;72.90;;;;;;5107249;27;43454;-73
2022/11/26 06:00:19;;;;;;;8.57;5.60;;;17.40;72.90;;;;;;5117062;27;43980;-72
2022/11/26 06:02:47;;;;;;;11.00;6.07;;;17.30;72.90;;;;;;5108207;27;43894;-71
2022/11/26 06:05:15;;;;;;;13.33;6.40;;;17.30;73.00;;;;;;5116836;27;43602;-70
2022/11/26 06:07:45;;;;;;;13.70;6.30;;;17.30;73.40;;;;;;5111632;27;43472;-72
2022/11/26 06:10:14;;;;;;;10.27;6.20;;;17.40;73.40;;;;;;5119591;27;44043;-70
2022/11/26 06:12:41;;;;;;;10.87;6.40;;;17.50;73.10;;;;;;5100340;27;43888;-71
2022/11/26 06:15:11;;;;;;;13.07;7.13;;;17.50;72.70;;;;;;5111200;27;43366;-70
2022/11/26 06:17:39;;;;;;;10.40;6.20;;;17.50;72.50;;;;;;5117591;27;43573;-72
2022/11/26 06:20:08;;;;;;;12.07;6.53;;;17.40;72.40;;;;;;5108669;27;43441;-72
2022/11/26 06:22:37;;;;;;;12.20;6.80;;;17.40;72.70;;;;;;5112502;27;43853;-71
2022/11/26 06:25:06;;;;;;;10.33;6.40;;;17.50;72.90;;;;;;5115976;27;43498;-72
2022/11/26 06:27:34;;;;;;;10.23;6.33;;;17.50;72.70;;;;;;5115722;27;43477;-71
2022/11/26 06:30:03;;;;;;;10.73;6.53;;;17.50;72.70;;;;;;5103310;27;43489;-69
2022/11/26 06:32:32;;;;;;;9.87;6.17;;;17.40;72.60;;;;;;5112279;27;43969;-70
2022/11/26 06:35:00;;;;;;;10.27;7.03;;;17.40;72.70;;;;;;5114170;27;44134;-72
2022/11/26 06:37:28;;;;;;;9.63;6.63;;;17.30;72.90;;;;;;5104393;27;43477;-72
2022/11/26 06:39:56;;;;;;;10.83;6.73;;;17.40;73.30;;;;;;5110432;27;44011;-71
2022/11/26 06:42:24;;;;;;;11.80;7.07;;;17.40;73.10;;;;;;5115421;27;46073;-70
2022/11/26 06:44:52;;;;;;;11.00;6.73;;;17.50;72.70;;;;;;5115769;27;44695;-74
2022/11/26 06:47:26;;;;;;;9.80;6.80;;;17.50;72.40;;;;;;5108388;27;43408;-71
2022/11/26 06:49:55;;;;;;;10.00;6.73;;;17.50;72.30;;;;;;5120797;27;43480;-71
2022/11/26 06:52:23;;;;;;;10.73;6.90;;;17.50;72.40;;;;;;5117074;27;43898;-70
2022/11/26 06:54:51;;;;;;;11.23;6.97;;;17.50;72.90;;;;;;5107914;27;44769;-70
2022/11/26 06:57:19;;;;;;;14.10;7.30;;;17.50;72.80;;;;;;5110767;27;43409;-69
2022/11/26 06:59:47;;;;;;;9.70;6.37;;;17.40;72.50;;;;;;5113621;27;43453;-72
2022/11/26 07:02:15;;;;;;;10.23;6.70;;;17.50;72.60;;;;;;5108878;27;43757;-70
2022/11/26 07:04:43;;;;;;;10.07;6.50;;;17.40;72.70;;;;;;5114215;27;43439;-71
2022/11/26 07:07:12;;;;;;;11.20;7.33;;;17.40;72.70;;;;;;5118567;27;44051;-71
2022/11/26 07:09:41;;;;;;;10.63;6.57;;;17.30;73.10;;;;;;5113891;27;43446;-70
2022/11/26 07:12:08;;;;;;;10.23;7.40;;;17.40;73.10;;;;;;5114684;27;45879;-70
2022/11/26 07:14:36;;;;;;;9.73;6.80;;;17.40;73.00;;;;;;5111640;27;44730;-72
2022/11/26 07:17:05;;;;;;;7.73;6.37;;;17.30;72.90;;;;;;5110533;27;43433;-71
2022/11/26 07:19:32;;;;;;;8.43;6.67;;;17.30;73.00;;;;;;5117973;27;43534;-70
2022/11/26 07:22:00;;;;;;;10.67;7.20;;;17.30;73.00;;;;;;5119851;27;46007;-72
2022/11/26 07:24:30;;;;;;;9.97;7.20;;;17.30;73.30;;;;;;5109807;27;44737;-71
2022/11/26 07:26:58;;;;;;;11.70;7.33;;;17.30;73.40;;;;;;5115602;27;43482;-71
2022/11/26 07:29:26;;;;;;;10.43;7.20;;;17.40;73.10;;;;;;5109272;27;43446;-71
2022/11/26 07:31:54;;;;;;;10.00;6.93;;;17.50;72.80;;;;;;5116878;27;43618;-71
2022/11/26 07:34:21;;;;;;;9.27;6.90;;;17.50;72.50;;;;;;5129187;27;43371;-71
2022/11/26 07:36:49;;;;;;;8.57;6.70;;;17.50;72.40;;;;;;5125703;27;43473;-72
2022/11/26 07:39:24;;;;;;;11.20;7.20;;;17.50;72.60;;;;;;5127117;27;43513;-70
2022/11/26 07:41:53;;;;;;;12.00;7.70;;;17.50;72.90;;;;;;5132551;27;43843;-70
2022/11/26 07:44:21;;;;;;;7.17;6.50;;;17.50;72.80;;;;;;5123123;27;44877;-72
2022/11/26 07:46:49;;;;;;;8.97;6.37;;;17.40;72.60;;;;;;5115183;27;43460;-71
2022/11/26 07:49:17;;;;;;;8.80;6.60;;;17.40;72.70;;;;;;5109060;27;43461;-72
2022/11/26 07:51:45;;;;;;;9.53;7.13;;;17.40;72.80;;;;;;5110048;27;43673;-71
2022/11/26 07:54:13;;;;;;;9.70;6.97;;;17.30;72.80;;;;;;5118019;27;43515;-71
2022/11/26 07:56:41;;;;;;;9.30;6.77;;;17.30;73.20;;;;;;5110147;27;43547;-72
2022/11/26 07:59:11;;;;;;;9.50;7.33;;;17.40;73.10;;;;;;5110794;27;44076;-71
2022/11/26 08:01:39;;;;;;;8.40;6.37;;;17.30;72.90;;;;;;5115670;27;43893;-71
2022/11/26 08:04:07;;;;;;;7.30;6.47;;;17.30;73.00;;;;;;5112576;27;44809;-71
2022/11/26 08:06:36;;;;;;;7.87;6.67;;;17.30;73.00;;;;;;5130842;27;43582;-71
2022/11/26 08:09:04;;;;;;;8.03;6.60;;;17.30;73.10;;;;;;5133179;27;43429;-71
2022/11/26 08:11:32;;;;;;;8.03;6.80;;;17.30;74.10;;;;;;5123383;27;45654;-70
2022/11/26 08:14:01;;;;;;;8.90;6.67;;;17.30;73.30;;;;;;5127019;27;44740;-72
2022/11/26 08:16:30;;;;;;;9.47;6.67;;;17.40;73.00;;;;;;5121260;27;43533;-74
2022/11/26 08:18:59;;;;;;;7.90;7.10;;;17.60;72.60;;;;;;5122941;27;43440;-72
2022/11/26 08:21:27;;;;;;;8.23;6.70;;;17.60;72.30;;;;;;5130971;27;43911;-71
2022/11/26 08:23:55;;;;;;;9.00;6.90;;;17.60;72.20;;;;;;5128015;27;43417;-70
2022/11/26 08:26:24;;;;;;;10.13;7.00;;;17.50;72.40;;;;;;5130715;27;43442;-71
2022/11/26 08:29:02;;;;;;;8.23;6.37;;;17.60;72.50;;;;;;5133467;27;43925;-70
2022/11/26 08:31:31;;;;;;;7.80;6.40;;;17.50;72.30;;;;;;5120374;27;43600;-71
2022/11/26 08:33:59;;;;;;;7.40;6.27;;;17.50;72.30;;;;;;5120055;27;43436;-72
2022/11/26 08:36:28;;;;;;;9.53;7.00;;;17.50;72.50;;;;;;5114707;27;43373;-71
2022/11/26 08:38:57;;;;;;;7.13;6.43;;;17.40;72.50;;;;;;5119727;27;43968;-70
2022/11/26 08:41:25;;;;;;;6.83;6.13;;;17.40;72.90;;;;;;5122809;27;44553;-73
2022/11/26 08:43:53;;;;;;;7.87;6.27;;;17.40;73.00;;;;;;5114568;27;44020;-71
2022/11/26 08:46:38;;;;;;;7.17;5.83;;;17.40;73.00;;;;;;5129106;27;43392;-71
2022/11/26 08:49:06;;;;;;;6.37;5.63;;;17.40;72.90;;;;;;5120595;27;43465;-72
2022/11/26 08:51:34;;;;;;;7.87;6.30;;;17.40;72.90;;;;;;5112300;27;43820;-71
2022/11/26 08:54:02;;;;;;;8.07;6.30;;;17.30;72.90;;;;;;5133499;27;43357;-72
2022/11/26 08:56:30;;;;;;;6.87;6.23;;;17.30;73.20;;;;;;5132556;27;43485;-71
2022/11/26 08:58:58;;;;;;;8.20;6.17;;;17.30;73.20;;;;;;5128885;27;43475;-72
2022/11/26 09:01:27;;;;;;;7.07;6.37;;;17.30;73.00;;;;;;5112581;27;43899;-71
2022/11/26 09:03:59;;;;;;;6.80;6.10;;;17.30;72.90;;;;;;5112629;27;43517;-70
2022/11/26 09:06:28;;;;;;;7.13;5.97;;;17.30;72.90;;;;;;5132628;27;43489;-71
2022/11/26 09:09:16;;;;;;;6.40;5.80;;;17.30;73.00;;;;;;5111421;27;43515;-72
2022/11/26 09:11:46;;;;;;;7.20;6.23;;;17.30;73.20;;;;;;5116013;27;43907;-73
2022/11/26 09:14:14;;;;;;;6.83;5.77;;;17.30;73.50;;;;;;5114698;27;44686;-70
2022/11/26 09:16:42;;;;;;;6.37;5.83;;;17.40;73.30;;;;;;5114293;27;44152;-72
2022/11/26 09:19:12;;;;;;;6.70;6.00;;;17.50;72.80;;;;;;5135672;27;43520;-71
2022/11/26 09:21:40;;;;;;;7.50;6.47;;;17.60;72.50;;;;;;5124759;27;43853;-70
2022/11/26 09:24:08;;;;;;;6.93;5.97;;;17.60;72.20;;;;;;5115933;27;43484;-71
2022/11/26 09:26:36;;;;;;;6.83;5.90;;;17.60;72.20;;;;;;5112047;27;43928;-71
2022/11/26 09:29:04;;;;;;;6.37;5.77;;;17.50;72.50;;;;;;5118186;27;43358;-73
2022/11/26 09:31:32;;;;;;;8.13;6.40;;;17.60;72.50;;;;;;5132420;27;43829;-72
2022/11/26 09:34:01;;;;;;;6.47;5.93;;;17.50;72.30;;;;;;5121436;27;43363;-71
2022/11/26 09:36:30;;;;;;;5.83;5.33;;;17.50;72.40;;;;;;5121092;27;43413;-70
2022/11/26 09:38:59;;;;;;;6.10;5.50;;;17.50;72.50;;;;;;5128357;27;43451;-71
2022/11/26 09:41:47;;;;;;;6.27;5.67;;;17.40;72.60;;;;;;5126779;27;44112;-70
2022/11/26 09:44:22;;;;;;;6.23;5.63;;;17.40;73.10;;;;;;5129624;27;43455;-71
2022/11/26 09:46:55;;;;;;;6.13;5.53;;;17.40;73.00;;;;;;5136602;27;43713;-72
2022/11/26 09:49:44;;;;;;;5.63;5.03;;;17.40;72.80;;;;;;5141679;27;44332;-71
2022/11/26 09:52:14;;;;;;;5.80;5.40;;;17.30;72.80;;;;;;5128968;27;43666;-72
2022/11/26 09:54:42;;;;;;;5.27;4.87;;;17.30;72.90;;;;;;5130237;27;43401;-71
2022/11/26 09:57:18;;;;;;;5.70;5.20;;;17.30;72.90;;;;;;5127988;27;43740;-70
2022/11/26 09:59:46;;;;;;;5.63;5.23;;;17.30;73.50;;;;;;5129372;27;43557;-71
2022/11/26 10:02:14;;;;;;;5.77;5.33;;;17.30;73.30;;;;;;5127589;27;43758;-73
2022/11/26 10:04:42;;;;;;;5.77;5.27;;;17.50;73.10;;;;;;5132096;27;43918;-71
2022/11/26 10:07:22;;;;;;;5.77;5.27;;;17.50;72.60;;;;;;5124521;27;43600;-71
2022/11/26 10:09:56;;;;;;;5.87;5.37;;;17.50;72.40;;;;;;5131246;27;43470;-71
2022/11/26 10:12:31;;;;;;;6.17;5.57;;;17.50;72.50;;;;;;5131151;27;43815;-71
2022/11/26 10:15:01;;;;;;;6.17;5.57;;;17.40;72.80;;;;;;5130964;27;44091;-70
2022/11/26 10:17:35;;;;;;;6.30;5.80;;;17.40;72.70;;;;;;5129595;27;43445;-70
2022/11/26 10:20:30;;;;;;;5.43;5.00;;;17.50;72.80;;;;;;5119757;27;45250;-72
2022/11/26 10:23:02;;;;;;;4.87;4.57;;;17.40;72.60;;;;;;5132025;27;43846;-71
2022/11/26 10:25:33;;;;;;;4.90;4.60;;;17.40;72.70;;;;;;5125230;27;43924;-74
2022/11/26 10:28:01;;;;;;;5.33;4.93;;;17.40;72.90;;;;;;5122907;27;43458;-75
2022/11/26 10:30:30;;;;;;;5.20;4.80;;;17.30;73.20;;;;;;5125247;27;43520;-71
2022/11/26 10:32:59;;;;;;;5.40;4.90;;;17.30;73.10;;;;;;5131560;27;43839;-72
2022/11/26 10:35:28;;;;;;;5.33;4.93;;;17.30;73.00;;;;;;5128223;27;44791;-71
2022/11/26 10:37:56;;;;;;;5.10;4.70;;;17.30;72.90;;;;;;5131774;27;43482;-71
2022/11/26 10:40:26;;;;;;;4.57;4.27;;;17.30;72.90;;;;;;5121929;27;43462;-71
2022/11/26 10:43:01;;;;;;;4.87;4.57;;;17.30;73.10;;;;;;5130890;27;43595;-70
2022/11/26 10:45:36;;;;;;;5.13;4.73;;;17.30;73.50;;;;;;5128687;27;43509;-70
2022/11/26 10:48:31;;;;;;;5.40;4.93;;;17.30;73.40;;;;;;5131774;27;43463;-71
2022/11/26 10:51:01;;;;;;;4.90;4.60;;;17.50;73.10;;;;;;5089097;27;44006;-70
2022/11/26 10:53:31;;;;;;;4.50;4.10;;;17.50;72.60;;;;;;5122956;27;45837;-71
2022/11/26 10:56:00;;;;;;;4.93;4.53;;;17.50;72.30;;;;;;5128698;27;45119;-72
2022/11/26 10:58:30;;;;;;;4.90;4.60;;;17.50;72.20;;;;;;5128330;27;43448;-72
2022/11/26 11:00:59;;;;;;;4.90;4.50;;;17.50;72.70;;;;;;5129032;27;43415;-71
2022/11/26 11:03:29;;;;;;;4.37;4.17;;;17.50;72.80;;;;;;5130709;27;44191;-70
2022/11/26 11:06:28;;;;;;;4.47;4.17;;;17.50;72.60;;;;;;5133939;27;45028;-71
2022/11/26 11:08:56;;;;;;;4.83;4.53;;;17.40;72.40;;;;;;5126224;27;43358;-71
2022/11/26 11:11:26;;;;;;;4.10;3.90;;;17.40;72.60;;;;;;5129884;27;43415;-71
2022/11/26 11:13:54;;;;;;;5.00;4.70;;;17.40;72.70;;;;;;5121038;27;43942;-70
2022/11/26 11:16:25;;;;;;;4.40;4.10;;;17.30;73.00;;;;;;5123152;27;43455;-71
2022/11/26 11:18:55;;;;;;;4.43;4.23;;;17.30;73.10;;;;;;5112181;27;43482;-70
2022/11/26 11:21:23;;;;;;;4.17;3.97;;;17.30;72.90;;;;;;5118317;27;43512;-72
2022/11/26 11:23:51;;;;;;;4.57;4.17;;;17.30;72.80;;;;;;5120342;27;43824;-72
2022/11/26 11:26:42;;;;;;;4.33;4.03;;;17.30;72.80;;;;;;5130879;27;43903;-70
2022/11/26 11:29:24;;;;;;;4.67;4.27;;;17.30;72.90;;;;;;5129082;27;43886;-70
2022/11/26 11:31:52;;;;;;;4.23;3.93;;;17.30;73.40;;;;;;5131916;27;43685;-71
2022/11/26 11:34:21;;;;;;;4.50;4.20;;;17.30;73.40;;;;;;5133037;27;43818;-70
2022/11/26 11:36:58;;;;;;;4.40;4.10;;;17.40;73.00;;;;;;5122906;27;43917;-70
2022/11/26 11:39:28;;;;;;;4.40;4.20;;;17.50;72.70;;;;;;5122020;27;43437;-73
2022/11/26 11:41:57;;;;;;;4.20;4.00;;;17.50;72.40;;;;;;5125341;27;43446;-71
2022/11/26 11:44:26;;;;;;;3.93;3.73;;;17.50;72.40;;;;;;5119415;27;43835;-71
2022/11/26 11:47:02;;;;;;;3.60;3.50;;;17.40;72.70;;;;;;5112083;27;43522;-71
2022/11/26 11:49:38;;;;;;;4.03;3.73;;;17.50;72.80;;;;;;5112781;27;43449;-74
2022/11/26 11:52:13;;;;;;;4.03;3.83;;;17.40;72.50;;;;;;5108514;27;43580;-69
2022/11/26 11:54:48;;;;;;;4.30;4.07;;;17.40;72.40;;;;;;5103227;27;43894;-70
2022/11/26 11:57:21;;;;;;;4.10;3.80;;;17.40;72.40;;;;;;5105917;27;43429;-72
2022/11/26 12:00:12;;;;;;;4.40;3.93;;;17.40;72.30;;;;;;5104210;27;44089;-71
2022/11/26 12:02:50;;;;;;;4.43;4.17;;;17.30;71.90;;;;;;5110509;27;44048;-71
2022/11/26 12:05:38;;;;;;;3.70;3.50;;;17.40;71.30;;;;;;5114343;27;43733;-71
2022/11/26 12:08:12;;;;;;;4.77;4.40;;;17.50;71.20;;;;;;5116186;27;43436;-70
2022/11/26 12:10:43;;;;;;;4.37;4.10;;;17.50;70.90;;;;;;5129107;27;43422;-71
2022/11/26 12:13:13;;;;;;;4.40;4.00;;;17.40;71.00;;;;;;5127174;27;43466;-72
2022/11/26 12:15:45;;;;;;;4.23;3.93;;;17.40;71.10;;;;;;5127501;27;43724;-72
2022/11/26 12:18:18;;;;;;;4.20;3.90;;;17.40;71.20;;;;;;5125774;27;43476;-70
2022/11/26 12:20:47;;;;;;;4.00;3.80;;;17.40;71.10;;;;;;5119280;27;43429;-69
2022/11/26 12:23:23;;;;;;;3.93;3.73;;;17.40;71.30;;;;;;5124914;27;43408;-70
2022/11/26 12:25:53;;;;;;;4.10;3.80;;;17.40;71.40;;;;;;5121120;27;43547;-72
2022/11/26 12:28:23;;;;;;;3.83;3.53;;;17.30;71.50;;;;;;5123032;27;44010;-70
2022/11/26 12:30:53;;;;;;;4.53;4.13;;;17.30;71.60;;;;;;5124060;27;43440;-71
2022/11/26 12:33:25;;;;;;;4.20;4.00;;;17.30;71.70;;;;;;5117916;27;43939;-72
2022/11/26 12:35:55;;;;;;;4.13;3.83;;;17.30;71.60;;;;;;5120369;27;46190;-72
2022/11/26 12:38:25;;;;;;;4.23;3.93;;;17.30;71.60;;;;;;5119961;27;43392;-70
2022/11/26 12:40:56;;;;;;;4.07;3.83;;;17.30;71.70;;;;;;5123553;27;43448;-71
2022/11/26 12:43:29;;;;;;;4.03;3.73;;;17.20;71.60;;;;;;5141707;27;43561;-70
2022/11/26 12:45:59;;;;;;;4.10;3.80;;;17.20;71.70;;;;;;5118609;27;44094;-70
2022/11/26 12:48:41;;;;;;;3.80;3.60;;;17.20;71.80;;;;;;5117464;27;43754;-71
2022/11/26 12:51:23;;;;;;;5.80;3.63;;;17.30;71.60;;;;;;5108916;27;43541;-72
2022/11/26 12:53:54;;;;;;;4.00;3.70;;;17.40;71.10;;;;;;5110287;27;43469;-71
2022/11/26 12:56:23;;;;;;;4.40;3.50;;;17.50;70.90;;;;;;5108609;27;43595;-70
2022/11/26 12:58:59;;;;;;;5.43;3.70;;;17.50;70.90;;;;;;5106394;27;44711;-71
2022/11/26 13:01:27;;;;;;;3.70;3.50;;;17.50;71.00;;;;;;5125691;27;43499;-71